sensor_id;sensor_type;location;lat;lon;timestamp;P1;durP1;ratioP1;P2;durP2;ratioP2
52848;SDS011;38714;53.180;5.812;2023-09-12T00:00:55;25.63;;;12.43;;
52848;SDS011;38714;53.180;5.812;2023-09-12T00:03:21;25.30;;;12.38;;
52848;SDS011;38714;53.180;5.812;2023-09-12T00:05:51;22.90;;;12.60;;
52848;SDS011;38714;53.180;5.812;2023-09-12T00:08:21;25.20;;;12.50;;
52848;SDS011;38714;53.180;5.812;2023-09-12T00:10:46;23.70;;;12.48;;
52848;SDS011;38714;53.180;5.812;2023-09-12T00:13:12;24.10;;;12.82;;
52848;SDS011;38714;53.180;5.812;2023-09-12T00:15:38;24.33;;;12.77;;
52848;SDS011;38714;53.180;5.812;2023-09-12T00:18:04;28.58;;;14.52;;
52848;SDS011;38714;53.180;5.812;2023-09-12T00:20:29;28.17;;;13.80;;
52848;SDS011;38714;53.180;5.812;2023-09-12T00:22:55;28.25;;;12.40;;
52848;SDS011;38714;53.180;5.812;2023-09-12T00:25:21;25.17;;;12.85;;
52848;SDS011;38714;53.180;5.812;2023-09-12T00:27:47;24.33;;;13.27;;
52848;SDS011;38714;53.180;5.812;2023-09-12T00:30:15;24.45;;;13.15;;
52848;SDS011;38714;53.180;5.812;2023-09-12T00:32:41;24.63;;;13.27;;
52848;SDS011;38714;53.180;5.812;2023-09-12T00:35:07;27.88;;;13.30;;
52848;SDS011;38714;53.180;5.812;2023-09-12T00:37:32;23.35;;;12.82;;
52848;SDS011;38714;53.180;5.812;2023-09-12T00:39:58;24.92;;;13.27;;
52848;SDS011;38714;53.180;5.812;2023-09-12T00:42:26;23.83;;;13.10;;
52848;SDS011;38714;53.180;5.812;2023-09-12T00:44:52;23.00;;;11.90;;
52848;SDS011;38714;53.180;5.812;2023-09-12T00:47:18;24.35;;;14.40;;
52848;SDS011;38714;53.180;5.812;2023-09-12T00:49:46;25.48;;;13.23;;
52848;SDS011;38714;53.180;5.812;2023-09-12T00:52:13;22.38;;;12.70;;
52848;SDS011;38714;53.180;5.812;2023-09-12T00:54:40;27.20;;;15.10;;
52848;SDS011;38714;53.180;5.812;2023-09-12T00:57:05;24.30;;;13.10;;
52848;SDS011;38714;53.180;5.812;2023-09-12T00:59:32;26.75;;;14.13;;
52848;SDS011;38714;53.180;5.812;2023-09-12T01:01:58;30.02;;;14.93;;
52848;SDS011;38714;53.180;5.812;2023-09-12T01:04:24;25.17;;;15.05;;
52848;SDS011;38714;53.180;5.812;2023-09-12T01:06:51;26.67;;;13.00;;
52848;SDS011;38714;53.180;5.812;2023-09-12T01:09:17;26.67;;;14.02;;
52848;SDS011;38714;53.180;5.812;2023-09-12T01:11:43;27.02;;;13.50;;
52848;SDS011;38714;53.180;5.812;2023-09-12T01:14:09;24.80;;;13.20;;
52848;SDS011;38714;53.180;5.812;2023-09-12T01:16:35;22.17;;;12.82;;
52848;SDS011;38714;53.180;5.812;2023-09-12T01:19:00;29.15;;;13.90;;
52848;SDS011;38714;53.180;5.812;2023-09-12T01:27:56;26.50;;;13.25;;
52848;SDS011;38714;53.180;5.812;2023-09-12T01:30:27;21.27;;;12.88;;
52848;SDS011;38714;53.180;5.812;2023-09-12T01:32:56;28.00;;;13.27;;
52848;SDS011;38714;53.180;5.812;2023-09-12T01:35:22;27.50;;;13.75;;
52848;SDS011;38714;53.180;5.812;2023-09-12T01:37:47;24.85;;;12.80;;
52848;SDS011;38714;53.180;5.812;2023-09-12T01:40:13;29.70;;;13.38;;
52848;SDS011;38714;53.180;5.812;2023-09-12T01:42:42;27.27;;;13.75;;
52848;SDS011;38714;53.180;5.812;2023-09-12T01:45:11;28.65;;;14.15;;
52848;SDS011;38714;53.180;5.812;2023-09-12T01:47:40;29.15;;;14.48;;
52848;SDS011;38714;53.180;5.812;2023-09-12T01:50:08;24.58;;;14.02;;
52848;SDS011;38714;53.180;5.812;2023-09-12T01:52:37;27.33;;;13.25;;
52848;SDS011;38714;53.180;5.812;2023-09-12T01:55:04;27.50;;;13.82;;
52848;SDS011;38714;53.180;5.812;2023-09-12T01:57:31;28.23;;;14.38;;
52848;SDS011;38714;53.180;5.812;2023-09-12T01:59:57;25.63;;;14.32;;
52848;SDS011;38714;53.180;5.812;2023-09-12T02:02:23;27.33;;;14.63;;
52848;SDS011;38714;53.180;5.812;2023-09-12T02:04:51;26.15;;;14.77;;
52848;SDS011;38714;53.180;5.812;2023-09-12T02:07:24;24.75;;;14.15;;
52848;SDS011;38714;53.180;5.812;2023-09-12T02:09:51;25.60;;;13.38;;
52848;SDS011;38714;53.180;5.812;2023-09-12T02:12:17;28.40;;;14.10;;
52848;SDS011;38714;53.180;5.812;2023-09-12T02:14:43;27.77;;;14.43;;
52848;SDS011;38714;53.180;5.812;2023-09-12T02:17:08;26.58;;;13.57;;
52848;SDS011;38714;53.180;5.812;2023-09-12T02:19:34;22.30;;;13.05;;
52848;SDS011;38714;53.180;5.812;2023-09-12T02:21:59;26.55;;;13.25;;
52848;SDS011;38714;53.180;5.812;2023-09-12T02:24:25;23.58;;;13.15;;
52848;SDS011;38714;53.180;5.812;2023-09-12T02:26:51;23.65;;;12.50;;
52848;SDS011;38714;53.180;5.812;2023-09-12T02:29:16;24.10;;;11.85;;
52848;SDS011;38714;53.180;5.812;2023-09-12T02:31:42;26.95;;;14.68;;
52848;SDS011;38714;53.180;5.812;2023-09-12T02:34:08;27.23;;;13.63;;
52848;SDS011;38714;53.180;5.812;2023-09-12T02:36:33;22.85;;;12.73;;
52848;SDS011;38714;53.180;5.812;2023-09-12T02:38:59;26.02;;;13.40;;
52848;SDS011;38714;53.180;5.812;2023-09-12T02:41:24;26.80;;;12.05;;
52848;SDS011;38714;53.180;5.812;2023-09-12T02:43:51;24.75;;;11.25;;
52848;SDS011;38714;53.180;5.812;2023-09-12T02:46:16;24.67;;;10.65;;
52848;SDS011;38714;53.180;5.812;2023-09-12T02:48:42;16.50;;;9.65;;
52848;SDS011;38714;53.180;5.812;2023-09-12T02:51:07;18.92;;;8.40;;
52848;SDS011;38714;53.180;5.812;2023-09-12T02:53:33;24.25;;;9.00;;
52848;SDS011;38714;53.180;5.812;2023-09-12T02:55:59;18.27;;;8.88;;
52848;SDS011;38714;53.180;5.812;2023-09-12T02:58:24;19.50;;;9.10;;
52848;SDS011;38714;53.180;5.812;2023-09-12T03:00:50;13.40;;;8.32;;
52848;SDS011;38714;53.180;5.812;2023-09-12T03:03:19;28.10;;;9.55;;
52848;SDS011;38714;53.180;5.812;2023-09-12T03:05:45;22.35;;;7.88;;
52848;SDS011;38714;53.180;5.812;2023-09-12T03:08:10;21.83;;;8.90;;
52848;SDS011;38714;53.180;5.812;2023-09-12T03:10:36;15.93;;;9.23;;
52848;SDS011;38714;53.180;5.812;2023-09-12T03:13:02;18.17;;;9.10;;
52848;SDS011;38714;53.180;5.812;2023-09-12T03:15:28;17.67;;;8.13;;
52848;SDS011;38714;53.180;5.812;2023-09-12T03:17:53;27.70;;;9.77;;
52848;SDS011;38714;53.180;5.812;2023-09-12T03:20:19;29.70;;;10.05;;
52848;SDS011;38714;53.180;5.812;2023-09-12T03:22:45;15.07;;;8.05;;
52848;SDS011;38714;53.180;5.812;2023-09-12T03:25:11;17.15;;;8.93;;
52848;SDS011;38714;53.180;5.812;2023-09-12T03:27:36;15.68;;;9.48;;
52848;SDS011;38714;53.180;5.812;2023-09-12T03:30:03;20.10;;;10.20;;
52848;SDS011;38714;53.180;5.812;2023-09-12T03:32:29;15.68;;;10.30;;
52848;SDS011;38714;53.180;5.812;2023-09-12T03:34:55;17.25;;;9.60;;
52848;SDS011;38714;53.180;5.812;2023-09-12T03:37:20;18.08;;;8.18;;
52848;SDS011;38714;53.180;5.812;2023-09-12T03:39:47;24.30;;;10.00;;
52848;SDS011;38714;53.180;5.812;2023-09-12T03:42:12;17.15;;;9.65;;
52848;SDS011;38714;53.180;5.812;2023-09-12T03:44:38;16.23;;;10.25;;
52848;SDS011;38714;53.180;5.812;2023-09-12T03:47:03;18.45;;;9.32;;
52848;SDS011;38714;53.180;5.812;2023-09-12T03:49:29;16.02;;;9.98;;
52848;SDS011;38714;53.180;5.812;2023-09-12T03:51:55;18.52;;;9.60;;
52848;SDS011;38714;53.180;5.812;2023-09-12T03:54:20;23.27;;;9.93;;
52848;SDS011;38714;53.180;5.812;2023-09-12T03:56:46;30.75;;;10.63;;
52848;SDS011;38714;53.180;5.812;2023-09-12T03:59:11;31.15;;;9.95;;
52848;SDS011;38714;53.180;5.812;2023-09-12T04:01:37;24.27;;;10.40;;
52848;SDS011;38714;53.180;5.812;2023-09-12T04:04:03;23.27;;;9.80;;
52848;SDS011;38714;53.180;5.812;2023-09-12T04:06:28;23.38;;;8.20;;
52848;SDS011;38714;53.180;5.812;2023-09-12T04:08:54;19.90;;;9.48;;
52848;SDS011;38714;53.180;5.812;2023-09-12T04:11:20;22.73;;;8.30;;
52848;SDS011;38714;53.180;5.812;2023-09-12T04:13:45;21.45;;;9.52;;
52848;SDS011;38714;53.180;5.812;2023-09-12T04:16:11;26.73;;;7.95;;
52848;SDS011;38714;53.180;5.812;2023-09-12T04:18:36;29.38;;;8.07;;
52848;SDS011;38714;53.180;5.812;2023-09-12T04:21:03;18.80;;;8.65;;
52848;SDS011;38714;53.180;5.812;2023-09-12T04:23:29;17.80;;;9.10;;
52848;SDS011;38714;53.180;5.812;2023-09-12T04:25:55;13.90;;;7.63;;
52848;SDS011;38714;53.180;5.812;2023-09-12T04:28:20;17.15;;;8.27;;
52848;SDS011;38714;53.180;5.812;2023-09-12T04:30:46;16.42;;;9.13;;
52848;SDS011;38714;53.180;5.812;2023-09-12T04:33:11;25.35;;;9.45;;
52848;SDS011;38714;53.180;5.812;2023-09-12T04:35:37;23.17;;;10.63;;
52848;SDS011;38714;53.180;5.812;2023-09-12T04:38:03;24.80;;;10.43;;
52848;SDS011;38714;53.180;5.812;2023-09-12T04:40:29;25.35;;;11.63;;
52848;SDS011;38714;53.180;5.812;2023-09-12T04:42:54;29.98;;;10.90;;
52848;SDS011;38714;53.180;5.812;2023-09-12T04:45:20;27.67;;;11.10;;
52848;SDS011;38714;53.180;5.812;2023-09-12T04:47:46;45.47;;;12.90;;
52848;SDS011;38714;53.180;5.812;2023-09-12T04:50:11;24.10;;;11.68;;
52848;SDS011;38714;53.180;5.812;2023-09-12T04:52:37;22.05;;;11.48;;
52848;SDS011;38714;53.180;5.812;2023-09-12T04:55:03;29.23;;;12.63;;
52848;SDS011;38714;53.180;5.812;2023-09-12T04:57:29;26.90;;;12.95;;
52848;SDS011;38714;53.180;5.812;2023-09-12T04:59:56;35.92;;;14.32;;
52848;SDS011;38714;53.180;5.812;2023-09-12T05:02:23;27.08;;;13.95;;
52848;SDS011;38714;53.180;5.812;2023-09-12T05:04:50;37.42;;;15.13;;
52848;SDS011;38714;53.180;5.812;2023-09-12T05:07:15;31.60;;;14.13;;
52848;SDS011;38714;53.180;5.812;2023-09-12T05:09:41;28.67;;;13.38;;
52848;SDS011;38714;53.180;5.812;2023-09-12T05:12:07;31.95;;;13.40;;
52848;SDS011;38714;53.180;5.812;2023-09-12T05:14:33;34.47;;;13.32;;
52848;SDS011;38714;53.180;5.812;2023-09-12T05:16:59;34.53;;;15.45;;
52848;SDS011;38714;53.180;5.812;2023-09-12T05:19:26;26.02;;;13.32;;
52848;SDS011;38714;53.180;5.812;2023-09-12T05:21:52;35.25;;;13.90;;
52848;SDS011;38714;53.180;5.812;2023-09-12T05:24:17;34.65;;;14.63;;
52848;SDS011;38714;53.180;5.812;2023-09-12T05:26:43;30.60;;;14.85;;
52848;SDS011;38714;53.180;5.812;2023-09-12T05:29:08;35.53;;;13.23;;
52848;SDS011;38714;53.180;5.812;2023-09-12T05:31:34;37.75;;;14.32;;
52848;SDS011;38714;53.180;5.812;2023-09-12T05:34:00;30.98;;;14.25;;
52848;SDS011;38714;53.180;5.812;2023-09-12T05:36:26;38.45;;;15.18;;
52848;SDS011;38714;53.180;5.812;2023-09-12T05:38:51;28.80;;;13.38;;
52848;SDS011;38714;53.180;5.812;2023-09-12T05:41:17;28.73;;;14.13;;
52848;SDS011;38714;53.180;5.812;2023-09-12T05:43:42;31.08;;;14.25;;
52848;SDS011;38714;53.180;5.812;2023-09-12T05:46:08;29.65;;;13.77;;
52848;SDS011;38714;53.180;5.812;2023-09-12T05:48:34;31.70;;;14.55;;
52848;SDS011;38714;53.180;5.812;2023-09-12T05:51:00;30.35;;;15.25;;
52848;SDS011;38714;53.180;5.812;2023-09-12T05:53:25;31.08;;;15.23;;
52848;SDS011;38714;53.180;5.812;2023-09-12T05:55:51;35.47;;;15.07;;
52848;SDS011;38714;53.180;5.812;2023-09-12T05:58:17;34.97;;;15.20;;
52848;SDS011;38714;53.180;5.812;2023-09-12T06:00:42;34.85;;;16.73;;
52848;SDS011;38714;53.180;5.812;2023-09-12T06:03:08;32.60;;;15.50;;
52848;SDS011;38714;53.180;5.812;2023-09-12T06:05:34;34.10;;;16.73;;
52848;SDS011;38714;53.180;5.812;2023-09-12T06:08:00;31.77;;;15.35;;
52848;SDS011;38714;53.180;5.812;2023-09-12T06:10:25;27.90;;;14.18;;
52848;SDS011;38714;53.180;5.812;2023-09-12T06:12:51;30.08;;;14.20;;
52848;SDS011;38714;53.180;5.812;2023-09-12T06:15:17;30.17;;;14.38;;
52848;SDS011;38714;53.180;5.812;2023-09-12T06:17:42;30.27;;;12.82;;
52848;SDS011;38714;53.180;5.812;2023-09-12T06:20:08;30.92;;;15.38;;
52848;SDS011;38714;53.180;5.812;2023-09-12T06:22:34;30.95;;;14.65;;
52848;SDS011;38714;53.180;5.812;2023-09-12T06:25:00;27.67;;;14.02;;
52848;SDS011;38714;53.180;5.812;2023-09-12T06:27:26;30.90;;;14.70;;
52848;SDS011;38714;53.180;5.812;2023-09-12T06:29:52;31.00;;;15.68;;
52848;SDS011;38714;53.180;5.812;2023-09-12T06:32:18;33.75;;;14.57;;
52848;SDS011;38714;53.180;5.812;2023-09-12T06:34:44;34.17;;;16.63;;
52848;SDS011;38714;53.180;5.812;2023-09-12T06:37:13;28.85;;;13.85;;
52848;SDS011;38714;53.180;5.812;2023-09-12T06:39:38;32.00;;;13.98;;
52848;SDS011;38714;53.180;5.812;2023-09-12T06:42:04;34.58;;;15.60;;
52848;SDS011;38714;53.180;5.812;2023-09-12T06:44:30;33.55;;;16.63;;
52848;SDS011;38714;53.180;5.812;2023-09-12T06:46:56;38.15;;;16.67;;
52848;SDS011;38714;53.180;5.812;2023-09-12T06:49:21;36.42;;;16.15;;
52848;SDS011;38714;53.180;5.812;2023-09-12T06:51:47;35.42;;;16.13;;
52848;SDS011;38714;53.180;5.812;2023-09-12T06:54:12;37.95;;;17.13;;
52848;SDS011;38714;53.180;5.812;2023-09-12T06:56:38;40.08;;;17.95;;
52848;SDS011;38714;53.180;5.812;2023-09-12T06:59:06;46.25;;;18.02;;
52848;SDS011;38714;53.180;5.812;2023-09-12T07:01:32;45.50;;;17.50;;
52848;SDS011;38714;53.180;5.812;2023-09-12T07:03:58;43.65;;;17.73;;
52848;SDS011;38714;53.180;5.812;2023-09-12T07:06:23;46.05;;;18.35;;
52848;SDS011;38714;53.180;5.812;2023-09-12T07:08:49;43.15;;;18.40;;
52848;SDS011;38714;53.180;5.812;2023-09-12T07:11:16;49.33;;;19.77;;
52848;SDS011;38714;53.180;5.812;2023-09-12T07:13:42;53.17;;;18.23;;
52848;SDS011;38714;53.180;5.812;2023-09-12T07:16:07;49.80;;;18.38;;
52848;SDS011;38714;53.180;5.812;2023-09-12T07:18:36;49.63;;;20.38;;
52848;SDS011;38714;53.180;5.812;2023-09-12T07:21:03;52.65;;;22.67;;
52848;SDS011;38714;53.180;5.812;2023-09-12T07:23:30;57.65;;;21.83;;
52848;SDS011;38714;53.180;5.812;2023-09-12T07:25:57;59.20;;;22.38;;
52848;SDS011;38714;53.180;5.812;2023-09-12T07:28:23;59.95;;;21.45;;
52848;SDS011;38714;53.180;5.812;2023-09-12T07:30:49;65.75;;;23.77;;
52848;SDS011;38714;53.180;5.812;2023-09-12T07:33:15;60.83;;;21.00;;
52848;SDS011;38714;53.180;5.812;2023-09-12T07:35:40;60.58;;;20.30;;
52848;SDS011;38714;53.180;5.812;2023-09-12T07:38:06;54.03;;;21.55;;
52848;SDS011;38714;53.180;5.812;2023-09-12T07:40:32;63.15;;;22.42;;
52848;SDS011;38714;53.180;5.812;2023-09-12T07:42:57;53.28;;;19.67;;
52848;SDS011;38714;53.180;5.812;2023-09-12T07:45:23;56.42;;;20.52;;
52848;SDS011;38714;53.180;5.812;2023-09-12T07:47:49;65.07;;;21.85;;
52848;SDS011;38714;53.180;5.812;2023-09-12T07:50:15;56.22;;;20.42;;
52848;SDS011;38714;53.180;5.812;2023-09-12T07:52:40;53.72;;;19.73;;
52848;SDS011;38714;53.180;5.812;2023-09-12T07:55:06;57.53;;;21.60;;
52848;SDS011;38714;53.180;5.812;2023-09-12T07:57:33;71.13;;;21.40;;
52848;SDS011;38714;53.180;5.812;2023-09-12T07:59:59;54.58;;;20.55;;
52848;SDS011;38714;53.180;5.812;2023-09-12T08:02:25;55.60;;;20.00;;
52848;SDS011;38714;53.180;5.812;2023-09-12T08:04:51;55.80;;;20.85;;
52848;SDS011;38714;53.180;5.812;2023-09-12T08:07:17;53.60;;;19.67;;
52848;SDS011;38714;53.180;5.812;2023-09-12T08:12:18;54.38;;;19.63;;
52848;SDS011;38714;53.180;5.812;2023-09-12T08:14:44;44.50;;;18.27;;
52848;SDS011;38714;53.180;5.812;2023-09-12T08:17:10;50.08;;;18.88;;
52848;SDS011;38714;53.180;5.812;2023-09-12T08:19:37;44.03;;;16.15;;
52848;SDS011;38714;53.180;5.812;2023-09-12T08:22:03;37.80;;;16.50;;
52848;SDS011;38714;53.180;5.812;2023-09-12T08:24:28;44.35;;;16.67;;
52848;SDS011;38714;53.180;5.812;2023-09-12T08:26:54;31.90;;;15.52;;
52848;SDS011;38714;53.180;5.812;2023-09-12T08:29:20;37.03;;;15.27;;
52848;SDS011;38714;53.180;5.812;2023-09-12T08:31:46;37.85;;;14.57;;
52848;SDS011;38714;53.180;5.812;2023-09-12T08:34:12;34.13;;;14.85;;
52848;SDS011;38714;53.180;5.812;2023-09-12T08:36:38;37.22;;;15.05;;
52848;SDS011;38714;53.180;5.812;2023-09-12T08:39:04;35.38;;;14.98;;
52848;SDS011;38714;53.180;5.812;2023-09-12T08:41:33;34.30;;;15.70;;
52848;SDS011;38714;53.180;5.812;2023-09-12T08:43:59;34.90;;;14.38;;
52848;SDS011;38714;53.180;5.812;2023-09-12T08:46:26;35.60;;;14.48;;
52848;SDS011;38714;53.180;5.812;2023-09-12T08:48:55;34.03;;;13.77;;
52848;SDS011;38714;53.180;5.812;2023-09-12T08:51:22;27.48;;;14.50;;
52848;SDS011;38714;53.180;5.812;2023-09-12T08:53:49;31.80;;;13.70;;
52848;SDS011;38714;53.180;5.812;2023-09-12T08:56:15;26.70;;;14.20;;
52848;SDS011;38714;53.180;5.812;2023-09-12T08:58:41;30.75;;;12.85;;
52848;SDS011;38714;53.180;5.812;2023-09-12T09:01:08;31.48;;;12.75;;
52848;SDS011;38714;53.180;5.812;2023-09-12T09:03:38;27.95;;;13.27;;
52848;SDS011;38714;53.180;5.812;2023-09-12T09:06:06;26.83;;;12.77;;
52848;SDS011;38714;53.180;5.812;2023-09-12T09:08:33;23.90;;;11.52;;
52848;SDS011;38714;53.180;5.812;2023-09-12T09:11:00;27.13;;;12.02;;
52848;SDS011;38714;53.180;5.812;2023-09-12T09:13:28;23.42;;;11.15;;
52848;SDS011;38714;53.180;5.812;2023-09-12T09:21:38;23.17;;;11.80;;
52848;SDS011;38714;53.180;5.812;2023-09-12T09:24:09;22.60;;;12.10;;
52848;SDS011;38714;53.180;5.812;2023-09-12T09:29:13;20.25;;;11.60;;
52848;SDS011;38714;53.180;5.812;2023-09-12T09:31:46;22.65;;;10.35;;
52848;SDS011;38714;53.180;5.812;2023-09-12T09:34:15;16.15;;;8.05;;
52848;SDS011;38714;53.180;5.812;2023-09-12T09:36:42;15.15;;;8.75;;
52848;SDS011;38714;53.180;5.812;2023-09-12T09:39:18;18.75;;;9.98;;
52848;SDS011;38714;53.180;5.812;2023-09-12T09:41:49;18.88;;;10.85;;
52848;SDS011;38714;53.180;5.812;2023-09-12T09:44:16;19.10;;;9.45;;
52848;SDS011;38714;53.180;5.812;2023-09-12T09:46:43;17.98;;;10.27;;
52848;SDS011;38714;53.180;5.812;2023-09-12T09:49:16;19.65;;;9.43;;
52848;SDS011;38714;53.180;5.812;2023-09-12T09:51:44;22.27;;;10.90;;
52848;SDS011;38714;53.180;5.812;2023-09-12T09:54:13;17.83;;;9.50;;
52848;SDS011;38714;53.180;5.812;2023-09-12T09:56:49;16.08;;;10.25;;
52848;SDS011;38714;53.180;5.812;2023-09-12T09:59:18;17.80;;;9.40;;
52848;SDS011;38714;53.180;5.812;2023-09-12T10:01:46;17.48;;;10.07;;
52848;SDS011;38714;53.180;5.812;2023-09-12T10:04:14;15.50;;;8.43;;
52848;SDS011;38714;53.180;5.812;2023-09-12T10:06:43;19.55;;;9.15;;
52848;SDS011;38714;53.180;5.812;2023-09-12T10:09:10;12.82;;;7.78;;
52848;SDS011;38714;53.180;5.812;2023-09-12T10:11:38;18.40;;;9.20;;
52848;SDS011;38714;53.180;5.812;2023-09-12T10:14:05;17.58;;;8.48;;
52848;SDS011;38714;53.180;5.812;2023-09-12T10:16:34;16.55;;;8.00;;
52848;SDS011;38714;53.180;5.812;2023-09-12T10:19:21;16.38;;;8.68;;
52848;SDS011;38714;53.180;5.812;2023-09-12T10:24:21;20.02;;;9.05;;
52848;SDS011;38714;53.180;5.812;2023-09-12T10:26:48;19.17;;;8.93;;
52848;SDS011;38714;53.180;5.812;2023-09-12T10:29:15;13.50;;;8.27;;
52848;SDS011;38714;53.180;5.812;2023-09-12T10:31:41;16.38;;;8.43;;
52848;SDS011;38714;53.180;5.812;2023-09-12T10:34:08;17.50;;;8.82;;
52848;SDS011;38714;53.180;5.812;2023-09-12T10:36:38;17.60;;;8.98;;
52848;SDS011;38714;53.180;5.812;2023-09-12T10:39:05;16.95;;;8.40;;
52848;SDS011;38714;53.180;5.812;2023-09-12T10:41:33;17.65;;;8.27;;
52848;SDS011;38714;53.180;5.812;2023-09-12T10:44:03;18.70;;;8.77;;
52848;SDS011;38714;53.180;5.812;2023-09-12T10:46:36;18.38;;;8.82;;
52848;SDS011;38714;53.180;5.812;2023-09-12T10:49:06;14.57;;;8.57;;
52848;SDS011;38714;53.180;5.812;2023-09-12T10:51:54;16.08;;;8.45;;
52848;SDS011;38714;53.180;5.812;2023-09-12T10:54:24;18.70;;;8.30;;
52848;SDS011;38714;53.180;5.812;2023-09-12T10:59:29;15.13;;;7.72;;
52848;SDS011;38714;53.180;5.812;2023-09-12T11:04:55;15.02;;;7.13;;
52848;SDS011;38714;53.180;5.812;2023-09-12T11:12:40;12.55;;;7.18;;
52848;SDS011;38714;53.180;5.812;2023-09-12T11:15:06;13.07;;;6.65;;
52848;SDS011;38714;53.180;5.812;2023-09-12T11:17:40;10.75;;;6.18;;
52848;SDS011;38714;53.180;5.812;2023-09-12T11:20:07;12.88;;;7.15;;
52848;SDS011;38714;53.180;5.812;2023-09-12T11:22:36;10.25;;;6.30;;
52848;SDS011;38714;53.180;5.812;2023-09-12T11:25:04;11.13;;;7.40;;
52848;SDS011;38714;53.180;5.812;2023-09-12T11:30:17;12.73;;;6.20;;
52848;SDS011;38714;53.180;5.812;2023-09-12T11:32:44;11.15;;;7.10;;
52848;SDS011;38714;53.180;5.812;2023-09-12T11:35:13;10.80;;;6.65;;
52848;SDS011;38714;53.180;5.812;2023-09-12T11:37:39;10.43;;;6.13;;
52848;SDS011;38714;53.180;5.812;2023-09-12T11:42:41;13.20;;;6.53;;
52848;SDS011;38714;53.180;5.812;2023-09-12T11:45:08;8.57;;;5.63;;
52848;SDS011;38714;53.180;5.812;2023-09-12T11:47:39;11.02;;;6.78;;
52848;SDS011;38714;53.180;5.812;2023-09-12T11:50:06;9.68;;;6.50;;
52848;SDS011;38714;53.180;5.812;2023-09-12T11:52:35;9.10;;;6.35;;
52848;SDS011;38714;53.180;5.812;2023-09-12T11:55:02;7.97;;;5.50;;
52848;SDS011;38714;53.180;5.812;2023-09-12T11:57:28;6.47;;;4.88;;
52848;SDS011;38714;53.180;5.812;2023-09-12T11:59:55;10.30;;;5.28;;
52848;SDS011;38714;53.180;5.812;2023-09-12T12:02:21;6.70;;;5.13;;
52848;SDS011;38714;53.180;5.812;2023-09-12T12:04:48;11.52;;;5.72;;
52848;SDS011;38714;53.180;5.812;2023-09-12T12:07:15;6.50;;;4.22;;
52848;SDS011;38714;53.180;5.812;2023-09-12T12:09:41;5.22;;;4.07;;
52848;SDS011;38714;53.180;5.812;2023-09-12T12:12:10;6.80;;;3.90;;
52848;SDS011;38714;53.180;5.812;2023-09-12T12:14:38;5.50;;;4.00;;
52848;SDS011;38714;53.180;5.812;2023-09-12T12:17:11;4.85;;;3.63;;
52848;SDS011;38714;53.180;5.812;2023-09-12T12:19:37;5.75;;;3.65;;
52848;SDS011;38714;53.180;5.812;2023-09-12T12:22:04;3.75;;;3.05;;
52848;SDS011;38714;53.180;5.812;2023-09-12T12:24:46;6.82;;;3.63;;
52848;SDS011;38714;53.180;5.812;2023-09-12T12:27:15;4.75;;;3.45;;
52848;SDS011;38714;53.180;5.812;2023-09-12T12:29:41;6.35;;;3.92;;
52848;SDS011;38714;53.180;5.812;2023-09-12T12:32:08;5.95;;;3.25;;
52848;SDS011;38714;53.180;5.812;2023-09-12T12:34:35;6.05;;;2.78;;
52848;SDS011;38714;53.180;5.812;2023-09-12T12:37:01;6.30;;;3.78;;
52848;SDS011;38714;53.180;5.812;2023-09-12T12:39:27;6.72;;;3.20;;
52848;SDS011;38714;53.180;5.812;2023-09-12T12:41:53;6.25;;;4.22;;
52848;SDS011;38714;53.180;5.812;2023-09-12T12:44:20;5.13;;;3.25;;
52848;SDS011;38714;53.180;5.812;2023-09-12T12:46:52;5.03;;;3.15;;
52848;SDS011;38714;53.180;5.812;2023-09-12T12:49:19;5.03;;;3.17;;
52848;SDS011;38714;53.180;5.812;2023-09-12T12:51:46;4.32;;;3.22;;
52848;SDS011;38714;53.180;5.812;2023-09-12T12:54:13;6.72;;;3.30;;
52848;SDS011;38714;53.180;5.812;2023-09-12T12:56:39;4.53;;;3.45;;
52848;SDS011;38714;53.180;5.812;2023-09-12T12:59:06;4.85;;;3.58;;
52848;SDS011;38714;53.180;5.812;2023-09-12T13:01:37;4.53;;;3.33;;
52848;SDS011;38714;53.180;5.812;2023-09-12T13:04:04;4.38;;;2.75;;
52848;SDS011;38714;53.180;5.812;2023-09-12T13:06:31;4.57;;;3.45;;
52848;SDS011;38714;53.180;5.812;2023-09-12T13:09:00;8.77;;;4.45;;
52848;SDS011;38714;53.180;5.812;2023-09-12T13:11:29;6.45;;;4.00;;
52848;SDS011;38714;53.180;5.812;2023-09-12T13:13:56;9.30;;;3.50;;
52848;SDS011;38714;53.180;5.812;2023-09-12T13:16:21;4.57;;;3.17;;
52848;SDS011;38714;53.180;5.812;2023-09-12T13:18:47;8.40;;;3.35;;
52848;SDS011;38714;53.180;5.812;2023-09-12T13:21:13;7.22;;;3.83;;
52848;SDS011;38714;53.180;5.812;2023-09-12T13:23:38;6.03;;;3.83;;
52848;SDS011;38714;53.180;5.812;2023-09-12T13:26:05;7.47;;;4.22;;
52848;SDS011;38714;53.180;5.812;2023-09-12T13:28:32;4.45;;;3.40;;
52848;SDS011;38714;53.180;5.812;2023-09-12T13:30:58;6.93;;;3.72;;
52848;SDS011;38714;53.180;5.812;2023-09-12T13:33:23;4.30;;;3.72;;
52848;SDS011;38714;53.180;5.812;2023-09-12T13:35:49;4.07;;;3.00;;
52848;SDS011;38714;53.180;5.812;2023-09-12T13:38:15;6.22;;;3.50;;
52848;SDS011;38714;53.180;5.812;2023-09-12T13:40:43;7.45;;;3.38;;
52848;SDS011;38714;53.180;5.812;2023-09-12T13:43:10;3.63;;;3.33;;
52848;SDS011;38714;53.180;5.812;2023-09-12T13:45:37;7.20;;;2.97;;
52848;SDS011;38714;53.180;5.812;2023-09-12T13:48:03;5.25;;;2.78;;
52848;SDS011;38714;53.180;5.812;2023-09-12T13:50:30;5.35;;;2.78;;
52848;SDS011;38714;53.180;5.812;2023-09-12T13:52:57;2.72;;;2.53;;
52848;SDS011;38714;53.180;5.812;2023-09-12T13:55:31;4.22;;;2.40;;
52848;SDS011;38714;53.180;5.812;2023-09-12T13:57:58;4.78;;;2.22;;
52848;SDS011;38714;53.180;5.812;2023-09-12T14:00:24;4.38;;;2.63;;
52848;SDS011;38714;53.180;5.812;2023-09-12T14:02:49;2.33;;;2.13;;
52848;SDS011;38714;53.180;5.812;2023-09-12T14:05:15;3.83;;;2.35;;
52848;SDS011;38714;53.180;5.812;2023-09-12T14:07:41;5.80;;;2.75;;
52848;SDS011;38714;53.180;5.812;2023-09-12T14:10:06;7.07;;;2.80;;
52848;SDS011;38714;53.180;5.812;2023-09-12T14:12:32;3.08;;;2.10;;
52848;SDS011;38714;53.180;5.812;2023-09-12T14:14:58;2.97;;;1.63;;
52848;SDS011;38714;53.180;5.812;2023-09-12T14:17:24;3.90;;;2.35;;
52848;SDS011;38714;53.180;5.812;2023-09-12T14:19:50;6.43;;;2.47;;
52848;SDS011;38714;53.180;5.812;2023-09-12T14:22:15;4.90;;;2.90;;
52848;SDS011;38714;53.180;5.812;2023-09-12T14:24:41;2.53;;;2.30;;
52848;SDS011;38714;53.180;5.812;2023-09-12T14:27:07;2.50;;;2.13;;
52848;SDS011;38714;53.180;5.812;2023-09-12T14:29:32;3.63;;;2.28;;
52848;SDS011;38714;53.180;5.812;2023-09-12T14:31:58;2.08;;;1.77;;
52848;SDS011;38714;53.180;5.812;2023-09-12T14:34:24;4.15;;;2.28;;
52848;SDS011;38714;53.180;5.812;2023-09-12T14:36:55;4.45;;;2.42;;
52848;SDS011;38714;53.180;5.812;2023-09-12T14:39:21;2.60;;;2.05;;
52848;SDS011;38714;53.180;5.812;2023-09-12T14:41:48;2.67;;;2.15;;
52848;SDS011;38714;53.180;5.812;2023-09-12T14:44:23;4.43;;;2.70;;
52848;SDS011;38714;53.180;5.812;2023-09-12T14:46:49;3.15;;;1.90;;
52848;SDS011;38714;53.180;5.812;2023-09-12T14:49:15;2.03;;;1.70;;
52848;SDS011;38714;53.180;5.812;2023-09-12T14:51:42;2.38;;;2.17;;
52848;SDS011;38714;53.180;5.812;2023-09-12T14:54:08;3.38;;;2.00;;
52848;SDS011;38714;53.180;5.812;2023-09-12T14:56:34;2.90;;;2.28;;
52848;SDS011;38714;53.180;5.812;2023-09-12T14:59:00;3.33;;;2.20;;
52848;SDS011;38714;53.180;5.812;2023-09-12T15:01:27;3.20;;;1.95;;
52848;SDS011;38714;53.180;5.812;2023-09-12T15:03:53;2.13;;;1.70;;